createdAt,value
2023-01-15T00:02:22.768Z,7.70
2023-01-15T00:04:53.160Z,7.70
2023-01-15T00:07:20.329Z,7.60
2023-01-15T00:09:47.509Z,7.60
2023-01-15T00:12:14.805Z,7.60
2023-01-15T00:14:41.928Z,7.60
2023-01-15T00:17:09.070Z,7.60
2023-01-15T00:19:36.220Z,7.60
2023-01-15T00:22:03.358Z,7.50
2023-01-15T00:24:48.840Z,7.40
2023-01-15T00:27:34.310Z,7.40
2023-01-15T00:30:01.648Z,7.40
2023-01-15T00:32:29.888Z,7.70
2023-01-15T00:34:58.706Z,7.80
2023-01-15T00:37:25.821Z,7.30
2023-01-15T00:39:52.976Z,7.50
2023-01-15T00:42:20.284Z,7.30
2023-01-15T00:44:48.144Z,7.30
2023-01-15T00:47:15.532Z,7.30
2023-01-15T00:49:43.118Z,7.30
2023-01-15T00:52:10.490Z,7.30
2023-01-15T00:54:37.699Z,7.30
2023-01-15T00:57:04.827Z,7.30
2023-01-15T00:59:31.954Z,7.30
2023-01-15T01:01:59.294Z,7.30
2023-01-15T01:04:26.755Z,7.20
2023-01-15T01:06:54.314Z,7.30
2023-01-15T01:09:21.505Z,7.20
2023-01-15T01:11:49.283Z,7.10
2023-01-15T01:14:16.662Z,7.20
2023-01-15T01:16:43.871Z,7.10
2023-01-15T01:19:12.849Z,7.90
2023-01-15T01:21:40.766Z,7.10
2023-01-15T01:24:08.438Z,7.10
2023-01-15T01:26:35.688Z,7.10
2023-01-15T01:29:04.331Z,7.10
2023-01-15T01:31:31.557Z,7.00
2023-01-15T01:33:59.452Z,7.00
2023-01-15T01:36:31.244Z,7.00
2023-01-15T01:38:58.833Z,7.10
2023-01-15T01:41:26.732Z,7.00
2023-01-15T01:43:58.523Z,7.00
2023-01-15T01:46:26.610Z,6.90
2023-01-15T01:49:06.477Z,6.80
2023-01-15T01:51:45.364Z,6.90
2023-01-15T01:54:13.956Z,6.90
2023-01-15T01:56:41.229Z,6.80
2023-01-15T01:59:09.011Z,7.00
2023-01-15T02:01:36.283Z,6.90
2023-01-15T02:04:06.664Z,6.80
2023-01-15T02:06:34.794Z,6.80
2023-01-15T02:09:01.985Z,6.70
2023-01-15T02:11:29.646Z,6.80
2023-01-15T02:14:05.031Z,6.80
2023-01-15T02:16:36.824Z,6.80
2023-01-15T02:19:24.151Z,6.70
2023-01-15T02:21:53.629Z,6.70
2023-01-15T02:24:31.898Z,6.60
2023-01-15T02:27:02.253Z,6.70
2023-01-15T02:29:36.215Z,6.60
2023-01-15T02:32:05.048Z,6.60
2023-01-15T02:34:35.309Z,6.60
2023-01-15T02:37:07.545Z,6.60
2023-01-15T02:39:36.842Z,6.60
2023-01-15T02:42:05.861Z,6.60
2023-01-15T02:44:33.961Z,6.60
2023-01-15T02:47:01.409Z,6.50
2023-01-15T02:49:28.759Z,6.50
2023-01-15T02:52:01.620Z,6.30
2023-01-15T02:54:30.505Z,6.60
2023-01-15T02:56:59.296Z,6.50
2023-01-15T02:59:37.455Z,6.50
2023-01-15T03:02:07.125Z,6.50
2023-01-15T03:04:37.363Z,6.50
2023-01-15T03:07:05.107Z,6.50
2023-01-15T03:09:32.712Z,6.40
2023-01-15T03:12:23.065Z,6.50
2023-01-15T03:14:51.072Z,6.40
2023-01-15T03:17:33.419Z,6.50
2023-01-15T03:20:13.806Z,6.50
2023-01-15T03:22:42.473Z,6.40
2023-01-15T03:25:25.341Z,6.40
2023-01-15T03:27:53.880Z,6.30
2023-01-15T03:30:21.897Z,6.30
2023-01-15T03:32:49.018Z,6.30
2023-01-15T03:35:42.476Z,6.30
2023-01-15T03:38:10.154Z,6.30
2023-01-15T03:40:39.192Z,6.20
2023-01-15T03:43:28.381Z,5.50
2023-01-15T03:45:57.666Z,6.30
2023-01-15T03:48:36.468Z,6.30
2023-01-15T03:51:11.958Z,6.30
2023-01-15T03:53:45.794Z,6.30
2023-01-15T03:56:25.071Z,6.20
2023-01-15T03:59:09.070Z,6.30
2023-01-15T04:01:38.772Z,6.30
2023-01-15T04:04:06.470Z,6.20
2023-01-15T04:06:35.364Z,6.20
2023-01-15T04:09:04.693Z,6.20
2023-01-15T04:11:31.863Z,6.20
2023-01-15T04:13:59.156Z,6.20
2023-01-15T04:16:28.950Z,6.10
2023-01-15T04:18:56.352Z,6.20
2023-01-15T04:21:24.163Z,6.10
2023-01-15T04:23:51.375Z,6.10
2023-01-15T04:26:18.901Z,6.90
2023-01-15T04:28:46.011Z,6.10
2023-01-15T04:31:13.598Z,6.10
2023-01-15T04:33:40.886Z,6.20
2023-01-15T04:36:11.658Z,6.20
2023-01-15T04:38:38.835Z,6.20
2023-01-15T04:41:24.865Z,6.10
2023-01-15T04:44:07.213Z,6.10
2023-01-15T04:46:41.218Z,7.30
2023-01-15T04:49:09.936Z,6.10
2023-01-15T04:51:37.530Z,6.10
2023-01-15T04:54:05.540Z,6.10
2023-01-15T04:56:33.437Z,6.00
2023-01-15T04:59:01.846Z,6.10
2023-01-15T05:01:29.121Z,6.00
2023-01-15T05:03:58.363Z,6.00
2023-01-15T05:06:25.848Z,6.00
2023-01-15T05:08:53.297Z,5.90
2023-01-15T05:11:20.477Z,5.90
2023-01-15T05:13:47.695Z,5.90
2023-01-15T05:16:19.219Z,7.00
2023-01-15T05:18:46.993Z,5.90
2023-01-15T05:21:18.665Z,5.90
2023-01-15T05:23:45.923Z,5.90
2023-01-15T05:26:13.280Z,5.90
2023-01-15T05:28:40.620Z,5.90
2023-01-15T05:31:09.052Z,5.90
2023-01-15T05:33:37.381Z,5.50
2023-01-15T05:36:05.504Z,5.90
2023-01-15T05:38:33.540Z,5.90
2023-01-15T05:41:03.350Z,6.00
2023-01-15T05:43:30.583Z,6.00
2023-01-15T05:46:01.867Z,5.90
2023-01-15T05:48:29.213Z,5.90
2023-01-15T05:50:56.342Z,6.00
2023-01-15T05:53:23.446Z,6.00
2023-01-15T05:55:50.636Z,6.00
2023-01-15T05:58:17.775Z,6.00
2023-01-15T06:00:44.900Z,6.10
2023-01-15T06:03:12.087Z,6.10
2023-01-15T06:05:39.236Z,6.20
2023-01-15T06:08:06.636Z,6.10
2023-01-15T06:10:33.837Z,6.10
2023-01-15T06:13:00.957Z,6.20
2023-01-15T06:15:28.090Z,6.20
2023-01-15T06:17:55.257Z,6.20
2023-01-15T06:20:22.397Z,6.20
2023-01-15T06:22:49.501Z,6.20
2023-01-15T06:25:16.688Z,7.30
2023-01-15T06:27:44.643Z,6.30
2023-01-15T06:30:12.487Z,6.70
2023-01-15T06:32:39.595Z,6.30
2023-01-15T06:35:07.352Z,6.30
2023-01-15T06:37:34.474Z,6.30
2023-01-15T06:40:01.809Z,6.30
2023-01-15T06:42:47.938Z,6.30
2023-01-15T06:45:33.852Z,6.30
2023-01-15T06:48:01.458Z,6.30
2023-01-15T06:50:28.544Z,6.20
2023-01-15T06:52:55.842Z,6.20
2023-01-15T06:55:24.054Z,6.20
2023-01-15T06:57:51.277Z,6.20
2023-01-15T07:00:18.968Z,6.20
2023-01-15T07:02:46.097Z,6.20
2023-01-15T07:05:13.403Z,6.20
2023-01-15T07:07:40.498Z,6.20
2023-01-15T07:10:07.832Z,6.10
2023-01-15T07:12:35.335Z,6.10
2023-01-15T07:15:02.438Z,6.10
2023-01-15T07:17:29.679Z,6.00
2023-01-15T07:19:56.850Z,6.00
2023-01-15T07:22:23.961Z,6.00
2023-01-15T07:24:51.129Z,6.00
2023-01-15T07:27:18.486Z,6.00
2023-01-15T07:29:45.686Z,6.10
2023-01-15T07:32:13.842Z,6.00
2023-01-15T07:34:41.083Z,6.80
2023-01-15T07:37:08.228Z,6.10
2023-01-15T07:39:38.381Z,6.10
2023-01-15T07:42:24.345Z,6.10
2023-01-15T07:45:09.925Z,6.10
2023-01-15T07:47:55.617Z,6.10
2023-01-15T07:50:25.333Z,6.10
2023-01-15T07:52:53.380Z,6.20
2023-01-15T07:55:21.249Z,6.20
2023-01-15T07:57:48.547Z,6.20
2023-01-15T08:00:19.289Z,6.10
2023-01-15T08:02:49.742Z,6.60
2023-01-15T08:05:17.684Z,6.20
2023-01-15T08:07:45.390Z,6.20
2023-01-15T08:10:14.040Z,6.20
2023-01-15T08:12:59.958Z,6.20
2023-01-15T08:15:31.755Z,6.20
2023-01-15T08:17:59.007Z,6.30
2023-01-15T08:20:26.928Z,6.30
2023-01-15T08:22:54.318Z,6.30
2023-01-15T08:25:24.877Z,6.30
2023-01-15T08:27:52.799Z,6.30
2023-01-15T08:30:21.571Z,6.40
2023-01-15T08:32:48.699Z,6.40
2023-01-15T08:35:15.973Z,6.40
2023-01-15T08:37:43.319Z,6.40
2023-01-15T08:40:11.242Z,6.50
2023-01-15T08:42:38.691Z,6.40
2023-01-15T08:45:06.341Z,6.40
2023-01-15T08:47:33.722Z,6.50
2023-01-15T08:50:00.841Z,6.50
2023-01-15T08:52:28.159Z,6.50
2023-01-15T08:54:55.365Z,6.50
2023-01-15T08:57:22.513Z,6.60
2023-01-15T08:59:49.880Z,6.70
2023-01-15T09:02:18.036Z,6.70
2023-01-15T09:04:45.312Z,7.30
2023-01-15T09:07:12.988Z,6.70
2023-01-15T09:09:40.180Z,6.80
2023-01-15T09:12:07.400Z,6.80
2023-01-15T09:14:56.586Z,6.90
2023-01-15T09:17:21.681Z,7.00
2023-01-15T09:19:48.873Z,7.10
2023-01-15T09:22:16.309Z,7.10
2023-01-15T09:24:43.409Z,7.20
2023-01-15T09:27:11.838Z,7.20
2023-01-15T09:29:39.517Z,8.00
2023-01-15T09:32:08.248Z,7.30
2023-01-15T09:34:35.408Z,8.30
2023-01-15T09:37:02.929Z,7.30
2023-01-15T09:39:30.051Z,7.40
2023-01-15T09:42:09.656Z,7.40
2023-01-15T09:44:56.135Z,7.60
2023-01-15T09:47:30.213Z,7.60
2023-01-15T09:50:16.493Z,7.60
2023-01-15T09:52:46.862Z,7.70
2023-01-15T09:55:30.090Z,7.70
2023-01-15T09:58:00.234Z,7.80
2023-01-15T10:00:27.999Z,7.80
2023-01-15T10:03:16.010Z,9.00
2023-01-15T10:06:12.244Z,7.80
2023-01-15T10:08:46.460Z,7.80
2023-01-15T10:11:17.592Z,8.20
2023-01-15T10:13:46.872Z,7.80
2023-01-15T10:16:21.528Z,7.80
2023-01-15T10:18:48.769Z,7.70
2023-01-15T10:21:22.238Z,7.70
2023-01-15T10:23:55.244Z,7.80
2023-01-15T10:26:43.213Z,7.70
2023-01-15T10:29:26.024Z,7.80
2023-01-15T10:31:54.706Z,7.80
2023-01-15T10:34:21.908Z,7.80
2023-01-15T10:37:04.845Z,7.90
2023-01-15T10:39:38.793Z,8.00
2023-01-15T10:42:24.430Z,8.00
2023-01-15T10:45:10.404Z,8.00
2023-01-15T10:47:38.431Z,8.00
2023-01-15T10:50:19.143Z,8.10
2023-01-15T10:53:07.445Z,8.10
2023-01-15T10:55:42.450Z,8.00
2023-01-15T10:58:12.552Z,8.00
2023-01-15T11:00:40.042Z,8.10
2023-01-15T11:03:18.592Z,8.10
2023-01-15T11:05:50.024Z,8.00
2023-01-15T11:09:08.632Z,8.30
2023-01-15T11:11:53.648Z,8.10
2023-01-15T11:14:39.209Z,8.20
2023-01-15T11:17:33.002Z,8.20
2023-01-15T11:20:00.308Z,8.30
2023-01-15T11:22:28.813Z,8.40
2023-01-15T11:25:00.036Z,8.50
2023-01-15T11:27:28.807Z,8.50
2023-01-15T11:29:57.747Z,8.60
2023-01-15T11:32:36.067Z,8.60
2023-01-15T11:35:14.724Z,8.60
2023-01-15T11:37:41.956Z,8.60
2023-01-15T11:40:24.553Z,8.60
2023-01-15T11:43:10.413Z,8.50
2023-01-15T11:46:25.507Z,8.40
2023-01-15T11:49:11.168Z,8.40
2023-01-15T11:51:43.958Z,8.30
2023-01-15T11:54:15.226Z,8.30
2023-01-15T11:56:43.943Z,8.20
2023-01-15T11:59:17.688Z,8.20
2023-01-15T12:01:50.455Z,8.20
2023-01-15T12:04:24.518Z,6.90
2023-01-15T12:06:51.804Z,8.20
2023-01-15T12:09:37.503Z,8.10
2023-01-15T12:12:07.726Z,8.10
2023-01-15T12:14:56.817Z,8.10
2023-01-15T12:17:27.030Z,8.10
2023-01-15T12:19:54.125Z,8.00
2023-01-15T12:22:28.463Z,8.00
2023-01-15T12:25:07.513Z,8.10
2023-01-15T12:27:37.360Z,8.10
2023-01-15T12:30:13.668Z,8.10
2023-01-15T12:32:43.546Z,8.10
2023-01-15T12:35:30.616Z,8.20
2023-01-15T12:38:06.583Z,8.10
2023-01-15T12:40:41.009Z,8.20
2023-01-15T12:43:33.849Z,8.20
2023-01-15T12:46:02.712Z,8.20
2023-01-15T12:48:29.793Z,8.20
2023-01-15T12:50:58.047Z,8.30
2023-01-15T12:53:27.835Z,8.20
2023-01-15T12:56:00.389Z,8.20
2023-01-15T12:58:36.457Z,8.30
2023-01-15T13:01:14.220Z,8.90
2023-01-15T13:03:59.923Z,8.30
2023-01-15T13:06:28.768Z,8.20
2023-01-15T13:09:09.128Z,8.30
2023-01-15T13:11:36.341Z,8.30
2023-01-15T13:14:03.736Z,8.30
2023-01-15T13:16:30.881Z,8.30
2023-01-15T13:19:15.468Z,8.40
2023-01-15T13:21:44.160Z,8.30
2023-01-15T13:24:17.217Z,8.30
2023-01-15T13:27:02.908Z,8.30
2023-01-15T13:29:48.825Z,8.30
2023-01-15T13:32:19.417Z,8.20
2023-01-15T13:34:49.294Z,8.20
2023-01-15T13:37:19.633Z,8.20
2023-01-15T13:39:49.214Z,8.20
2023-01-15T13:42:33.039Z,8.40
2023-01-15T13:45:02.712Z,8.30
2023-01-15T13:47:31.267Z,8.30
2023-01-15T13:50:00.494Z,9.00
2023-01-15T13:52:31.809Z,8.30
2023-01-15T13:55:01.512Z,8.30
2023-01-15T13:57:40.487Z,8.20
2023-01-15T14:00:27.396Z,8.20
2023-01-15T14:02:55.783Z,8.20
2023-01-15T14:05:22.983Z,8.20
2023-01-15T14:07:50.127Z,9.00
2023-01-15T14:10:17.226Z,8.20
2023-01-15T14:12:59.415Z,8.20
2023-01-15T14:15:32.266Z,8.20
2023-01-15T14:18:21.321Z,8.20
2023-01-15T14:20:55.472Z,8.20
2023-01-15T14:23:28.507Z,8.20
2023-01-15T14:26:04.965Z,8.20
2023-01-15T14:28:41.370Z,8.20
2023-01-15T14:31:22.063Z,8.20
2023-01-15T14:33:55.399Z,8.20
2023-01-15T14:36:29.906Z,8.20
2023-01-15T14:38:58.875Z,8.20
2023-01-15T14:41:30.581Z,8.10
2023-01-15T14:43:59.473Z,8.10
2023-01-15T14:46:32.737Z,8.00
2023-01-15T14:49:00.309Z,8.00
2023-01-15T14:51:28.892Z,7.90
2023-01-15T14:53:58.159Z,8.00
2023-01-15T14:56:28.972Z,8.00
2023-01-15T14:58:58.567Z,8.00
2023-01-15T15:01:31.712Z,8.00
2023-01-15T15:04:01.208Z,7.90
2023-01-15T15:06:29.277Z,8.00
2023-01-15T15:09:00.851Z,7.90
2023-01-15T15:11:53.942Z,7.90
2023-01-15T15:14:21.576Z,7.90
2023-01-15T15:16:50.773Z,7.90
2023-01-15T15:19:29.389Z,9.00
2023-01-15T15:21:59.700Z,7.90
2023-01-15T15:24:26.836Z,7.90
2023-01-15T15:26:53.992Z,7.90
2023-01-15T15:29:22.098Z,8.40
2023-01-15T15:31:53.804Z,7.80
2023-01-15T15:37:15.365Z,7.80
2023-01-15T15:39:47.367Z,7.60
2023-01-15T15:42:38.966Z,7.70
2023-01-15T15:45:31.403Z,7.70
2023-01-15T15:48:17.359Z,8.20
2023-01-15T15:50:48.127Z,7.60
2023-01-15T15:53:18.130Z,7.50
2023-01-15T15:55:45.886Z,7.60
2023-01-15T15:58:18.488Z,7.50
2023-01-15T16:00:46.603Z,7.50
2023-01-15T16:03:27.478Z,7.40
2023-01-15T16:05:58.956Z,7.40
2023-01-15T16:08:27.177Z,7.40
2023-01-15T16:10:55.567Z,7.40
2023-01-15T16:13:26.243Z,7.40
2023-01-15T16:15:56.276Z,7.40
2023-01-15T16:18:35.842Z,7.40
2023-01-15T16:21:03.184Z,7.40
2023-01-15T16:52:48.676Z,7.20
2023-01-15T16:55:35.788Z,5.60
2023-01-15T16:58:12.145Z,7.10
2023-01-15T17:00:40.491Z,7.10
2023-01-15T17:03:14.294Z,7.10
2023-01-15T17:05:41.771Z,7.10
2023-01-15T17:08:16.643Z,7.10
2023-01-15T17:10:52.319Z,7.10
2023-01-15T17:13:19.936Z,7.10
2023-01-15T17:15:47.423Z,7.10
2023-01-15T17:18:24.389Z,7.00
2023-01-15T17:20:51.611Z,7.00
2023-01-15T17:23:21.229Z,7.00
2023-01-15T17:25:48.492Z,7.00
2023-01-15T17:28:16.373Z,6.90
2023-01-15T17:30:45.778Z,6.90
2023-01-15T17:33:13.029Z,6.90
2023-01-15T17:35:43.001Z,6.90
2023-01-15T17:38:12.140Z,6.80
2023-01-15T17:40:39.322Z,6.80
2023-01-15T17:43:07.667Z,6.80
2023-01-15T17:45:34.951Z,6.80
2023-01-15T17:48:04.014Z,6.70
2023-01-15T17:50:31.217Z,6.70
2023-01-15T17:52:58.308Z,6.60
2023-01-15T17:55:44.056Z,6.60
2023-01-15T17:58:30.720Z,6.50
2023-01-15T18:01:16.638Z,6.60
2023-01-15T18:04:04.907Z,6.90
2023-01-15T18:06:33.342Z,6.50
2023-01-15T18:09:01.911Z,6.60
2023-01-15T18:11:29.106Z,6.50
2023-01-15T18:13:57.162Z,6.60
2023-01-15T18:16:25.387Z,6.50
2023-01-15T18:18:53.655Z,6.70
2023-01-15T18:21:21.027Z,6.40
2023-01-15T18:23:48.362Z,6.40
2023-01-15T18:26:15.745Z,6.50
2023-01-15T18:28:42.915Z,6.50
2023-01-15T18:31:11.516Z,6.40
2023-01-15T18:33:38.684Z,6.40
2023-01-15T18:36:07.304Z,6.40
2023-01-15T18:38:35.510Z,6.40
2023-01-15T18:41:06.469Z,7.10
2023-01-15T18:43:52.362Z,6.30
2023-01-15T18:46:38.536Z,6.40
2023-01-15T18:49:05.693Z,6.40
2023-01-15T18:51:32.864Z,6.40
2023-01-15T18:54:00.140Z,6.40
2023-01-15T18:56:39.746Z,6.40
2023-01-15T18:59:08.183Z,6.30
2023-01-15T19:01:35.989Z,6.30
2023-01-15T19:04:06.106Z,6.30
2023-01-15T19:06:34.169Z,6.30
2023-01-15T19:09:01.657Z,6.30
2023-01-15T19:11:29.132Z,6.30
2023-01-15T19:14:15.700Z,6.20
2023-01-15T19:17:01.466Z,6.20
2023-01-15T19:19:28.863Z,6.30
2023-01-15T19:22:14.759Z,6.30
2023-01-15T19:24:42.044Z,6.30
2023-01-15T19:27:09.363Z,6.20
2023-01-15T19:29:36.550Z,6.10
2023-01-15T19:32:04.345Z,6.20
2023-01-15T19:34:34.055Z,6.20
2023-01-15T19:37:01.721Z,6.20
2023-01-15T19:39:29.737Z,6.20
2023-01-15T19:42:15.599Z,7.10
2023-01-15T19:45:01.206Z,6.10
2023-01-15T19:47:48.260Z,6.20
2023-01-15T19:50:19.940Z,6.10
2023-01-15T19:52:50.995Z,6.10
2023-01-15T19:55:19.136Z,6.10
2023-01-15T19:57:48.021Z,6.00
2023-01-15T20:00:17.649Z,6.00
2023-01-15T20:02:45.155Z,6.00
2023-01-15T20:05:13.479Z,6.00
2023-01-15T20:07:41.061Z,6.00
2023-01-15T20:10:09.669Z,5.90
2023-01-15T20:12:55.519Z,5.90
2023-01-15T20:15:24.187Z,6.60
2023-01-15T20:17:51.443Z,5.90
2023-01-15T20:20:18.733Z,5.90
2023-01-15T20:22:46.044Z,5.90
2023-01-15T20:25:13.249Z,5.90
2023-01-15T20:27:40.555Z,5.80
2023-01-15T20:30:10.317Z,4.50
2023-01-15T20:32:38.127Z,5.80
2023-01-15T20:35:07.099Z,5.80
2023-01-15T20:37:34.625Z,6.30
2023-01-15T20:40:01.825Z,5.70
2023-01-15T20:42:48.366Z,5.70
2023-01-15T20:45:16.604Z,5.70
2023-01-15T20:48:02.481Z,5.70
2023-01-15T20:50:31.172Z,5.70
2023-01-15T20:52:58.787Z,5.60
2023-01-15T20:55:45.616Z,5.60
2023-01-15T20:58:17.391Z,5.60
2023-01-15T21:00:44.614Z,5.60
2023-01-15T21:03:11.998Z,5.60
2023-01-15T21:05:39.162Z,5.70
2023-01-15T21:08:06.316Z,5.60
2023-01-15T21:10:33.495Z,5.60
2023-01-15T21:13:00.665Z,5.60
2023-01-15T21:15:27.946Z,5.50
2023-01-15T21:17:55.097Z,5.50
2023-01-15T21:20:22.263Z,5.50
2023-01-15T21:22:49.351Z,5.50
2023-01-15T21:25:16.668Z,5.50
2023-01-15T21:27:44.389Z,5.40
2023-01-15T21:30:11.779Z,5.40
2023-01-15T21:32:38.974Z,5.40
2023-01-15T21:35:06.304Z,5.40
2023-01-15T21:37:33.410Z,5.30
2023-01-15T21:40:00.518Z,5.20
2023-01-15T21:42:46.180Z,5.30
2023-01-15T21:45:13.329Z,5.30
2023-01-15T21:47:41.571Z,5.30
2023-01-15T21:50:09.263Z,5.30
2023-01-15T21:52:36.466Z,5.30
2023-01-15T21:55:03.802Z,5.20
2023-01-15T21:57:30.933Z,5.20
2023-01-15T21:59:58.111Z,5.20
2023-01-15T22:02:25.476Z,5.20
2023-01-15T22:04:52.595Z,5.20
2023-01-15T22:07:19.775Z,5.20
2023-01-15T22:09:46.959Z,5.20
2023-01-15T22:12:14.161Z,5.10
2023-01-15T22:14:41.472Z,5.10
2023-01-15T22:17:10.278Z,5.10
2023-01-15T22:19:37.499Z,5.10
2023-01-15T22:22:08.457Z,5.10
2023-01-15T22:24:36.639Z,5.10
2023-01-15T22:27:06.285Z,5.00
2023-01-15T22:29:36.415Z,5.00
2023-01-15T22:32:03.960Z,5.10
2023-01-15T22:34:31.211Z,5.00
2023-01-15T22:36:58.467Z,5.40
2023-01-15T22:39:26.610Z,5.10
2023-01-15T22:42:12.799Z,5.10
2023-01-15T22:44:40.253Z,5.10
2023-01-15T22:47:07.463Z,5.00
2023-01-15T22:49:34.643Z,5.10
2023-01-15T22:52:01.978Z,5.00
2023-01-15T22:54:29.146Z,5.00
2023-01-15T22:56:56.410Z,4.90
2023-01-15T22:59:24.856Z,5.00
2023-01-15T23:01:52.349Z,4.90
2023-01-15T23:04:21.619Z,4.90
2023-01-15T23:06:50.710Z,4.90
2023-01-15T23:09:18.498Z,4.90
2023-01-15T23:11:46.325Z,4.80
2023-01-15T23:14:15.121Z,4.80
2023-01-15T23:16:42.775Z,4.80
2023-01-15T23:19:10.059Z,4.80
2023-01-15T23:21:38.344Z,5.50
2023-01-15T23:24:05.613Z,5.30
2023-01-15T23:26:33.810Z,4.70
2023-01-15T23:29:00.968Z,4.70
2023-01-15T23:31:28.408Z,4.90
2023-01-15T23:33:55.570Z,4.80
2023-01-15T23:36:22.892Z,4.70
2023-01-15T23:38:50.042Z,4.80
2023-01-15T23:41:18.266Z,4.70
2023-01-15T23:44:04.319Z,4.80
2023-01-15T23:46:37.559Z,4.80
2023-01-15T23:49:06.146Z,4.90
2023-01-15T23:51:33.839Z,4.90
2023-01-15T23:54:01.295Z,4.90
2023-01-15T23:56:29.376Z,4.90
2023-01-15T23:58:56.889Z,4.90
